Highwood, Montana
Current Conditions -  °F | °C
As of 4:56 PM on Wednesday 22 Oct 2014 (Local Time) from KGFA Reporting Station
Clear Clear  
Wind Chill: 59°   Ceiling: Unl
Heat Index: 59°   Visibility: 10mi
Dew Point: 33°   Wind: 18mph
Humidity: 38%   Direction: 210°SSW
Pressure: 29.87"   Gusts: 29mph
Location:  47.58°N, 110.79°W
Report Text: KGFA 222256Z AUTO 21016G25KT 10SM CLR 15/01 A2987 RMK AO2 PK WND 23028/06 SLP128 T01490006
Loading
Personal Weather Stations






























Interactive Weather Map
Tropical Storm Tracking
New forecast layout! Learn more

10-Day Weather Forecast

Advertisements
Track Severe Weather on mobile